Time;durP1;ratioP1;P1;durP2;ratioP2;P2;SDS_P1;SDS_P2;PMS_P1;PMS_P2;Temp;Humidity;BMP_temperature;BMP_pressure;BME280_temperature;BME280_humidity;BME280_pressure;Samples;Min_cycle;Max_cycle;Signal;HPM_P1;HPM_P2
2022/06/29 00:00:26;;;;;;;9.23;8.25;;;;;;;25.56;60.44;100425.28;1666864;85;21116;-65
2022/06/29 00:02:55;;;;;;;8.85;8.00;;;;;;;25.55;60.50;100428.66;1666972;86;21092;-64
2022/06/29 00:05:25;;;;;;;9.33;8.40;;;;;;;25.54;60.52;100421.38;1667120;85;21013;-65
2022/06/29 00:07:54;;;;;;;12.13;8.20;;;;;;;25.51;60.55;100422.53;1666880;86;21061;-64
2022/06/29 00:10:23;;;;;;;9.55;8.55;;;;;;;25.45;60.61;100423.15;1666828;86;21026;-65
2022/06/29 00:12:51;;;;;;;9.65;8.45;;;;;;;25.41;60.76;100427.68;1666961;86;21069;-65
2022/06/29 00:15:20;;;;;;;9.35;8.45;;;;;;;25.39;60.93;100421.53;1666907;86;21104;-65
2022/06/29 00:17:50;;;;;;;10.08;8.15;;;;;;;25.38;61.03;100418.45;1666977;86;21053;-65
2022/06/29 00:20:20;;;;;;;9.40;8.28;;;;;;;25.36;61.06;100418.45;1666994;86;21037;-64
2022/06/29 00:22:49;;;;;;;10.43;8.88;;;;;;;25.33;61.10;100417.07;1666855;86;21077;-65
2022/06/29 00:25:18;;;;;;;9.55;8.55;;;;;;;25.30;61.29;100424.67;1666937;85;21041;-64
2022/06/29 00:27:47;;;;;;;10.93;8.03;;;;;;;25.26;61.32;100424.42;1666770;86;21077;-65
2022/06/29 00:30:16;;;;;;;10.28;9.23;;;;;;;25.22;61.54;100424.74;1666921;86;21072;-65
2022/06/29 00:32:45;;;;;;;9.85;8.75;;;;;;;25.15;61.75;100422.01;1666827;86;21092;-64
2022/06/29 00:35:14;;;;;;;9.93;8.93;;;;;;;25.07;61.96;100417.88;1666872;85;21108;-64
2022/06/29 00:37:43;;;;;;;10.15;9.05;;;;;;;25.06;62.08;100426.58;1667289;86;21050;-64
2022/06/29 00:40:13;;;;;;;11.33;9.15;;;;;;;25.03;62.16;100428.00;1666806;86;21033;-63
2022/06/29 00:42:42;;;;;;;9.65;8.70;;;;;;;25.02;62.18;100431.94;1666889;86;21185;-65
2022/06/29 00:45:11;;;;;;;11.35;8.53;;;;;;;24.96;62.44;100434.47;1667144;86;21009;-64
2022/06/29 00:47:41;;;;;;;11.45;9.30;;;;;;;24.89;62.67;100436.20;1667032;85;21084;-66
2022/06/29 00:50:10;;;;;;;10.60;8.50;;;;;;;24.91;62.72;100434.52;1662425;84;21073;-64
2022/06/29 00:52:41;;;;;;;10.88;8.80;;;;;;;24.91;62.79;100442.36;1662509;85;21083;-63
2022/06/29 00:55:12;;;;;;;10.00;9.00;;;;;;;24.87;62.93;100434.83;1662300;85;21458;-64
2022/06/29 00:57:45;;;;;;;11.30;9.30;;;;;;;24.88;62.96;100437.34;1662284;86;21070;-68
2022/06/29 01:00:15;;;;;;;12.20;8.83;;;;;;;24.92;62.96;100444.03;1662332;86;21014;-64
2022/06/29 01:02:45;;;;;;;12.70;9.45;;;;;;;24.92;63.03;100437.03;1662564;85;21034;-64
2022/06/29 01:05:14;;;;;;;9.83;8.83;;;;;;;24.90;63.06;100431.44;1662126;86;21180;-64
2022/06/29 01:07:43;;;;;;;10.70;9.18;;;;;;;24.93;63.01;100431.69;1662303;86;21093;-63
2022/06/29 01:10:13;;;;;;;9.95;8.90;;;;;;;24.95;63.04;100428.59;1637924;86;21045;-64
2022/06/29 01:12:43;;;;;;;12.20;9.00;;;;;;;24.98;63.05;100432.25;1662570;86;21070;-64
2022/06/29 01:15:12;;;;;;;10.00;8.90;;;;;;;25.00;63.03;100422.14;1662515;85;21061;-63
2022/06/29 01:17:41;;;;;;;9.98;8.98;;;;;;;25.03;63.06;100437.81;1662136;85;21095;-65
2022/06/29 01:20:11;;;;;;;10.23;8.60;;;;;;;24.99;63.16;100435.89;1662218;86;21061;-64
2022/06/29 01:22:40;;;;;;;10.18;9.00;;;;;;;24.96;63.28;100438.11;1662208;86;21089;-64
2022/06/29 01:25:09;;;;;;;10.72;9.30;;;;;;;24.86;63.54;100442.39;1662353;86;21060;-64
2022/06/29 01:27:39;;;;;;;10.58;9.10;;;;;;;24.78;63.65;100447.78;1662439;85;21045;-65
2022/06/29 01:30:11;;;;;;;10.70;8.95;;;;;;;24.74;63.86;100443.89;1662555;85;21081;-65
2022/06/29 01:32:40;;;;;;;10.95;8.85;;;;;;;24.72;63.86;100444.75;1662487;86;21120;-64
2022/06/29 01:35:12;;;;;;;11.88;9.15;;;;;;;24.69;63.85;100443.33;1662264;85;21156;-65
2022/06/29 01:37:41;;;;;;;10.23;9.25;;;;;;;24.68;63.86;100453.42;1662198;86;21108;-66
2022/06/29 01:40:12;;;;;;;11.05;9.95;;;;;;;24.65;64.02;100453.44;1662536;86;21053;-65
2022/06/29 01:42:41;;;;;;;11.90;9.90;;;;;;;24.59;64.30;100465.81;1662206;86;21494;-65
2022/06/29 01:45:11;;;;;;;11.43;9.20;;;;;;;24.54;64.50;100454.64;1662433;86;21073;-63
2022/06/29 01:47:40;;;;;;;14.80;9.95;;;;;;;24.53;64.64;100455.77;1662307;85;21116;-63
2022/06/29 01:50:10;;;;;;;15.00;10.55;;;;;;;24.55;64.85;100457.15;1666043;85;21219;-65
2022/06/29 01:52:39;;;;;;;12.58;9.70;;;;;;;24.56;65.08;100465.83;1666745;86;21481;-64
2022/06/29 01:55:09;;;;;;;15.90;10.25;;;;;;;24.57;65.26;100472.27;1666925;86;21089;-64
2022/06/29 01:57:37;;;;;;;11.40;10.20;;;;;;;24.52;65.50;100470.89;1666837;86;21069;-64
2022/06/29 02:00:08;;;;;;;14.07;10.78;;;;;;;24.50;65.65;100477.34;1666884;86;21485;-64
2022/06/29 02:02:37;;;;;;;14.30;11.22;;;;;;;24.51;65.63;100479.86;1667059;86;21112;-65
2022/06/29 02:05:07;;;;;;;14.73;10.72;;;;;;;24.51;65.73;100477.06;1666727;86;21113;-64
2022/06/29 02:07:36;;;;;;;12.05;10.70;;;;;;;24.51;65.78;100480.42;1666703;85;21037;-65
2022/06/29 02:10:07;;;;;;;13.18;10.05;;;;;;;24.48;65.88;100480.44;1667049;85;21077;-64
2022/06/29 02:12:36;;;;;;;15.05;10.80;;;;;;;24.51;66.13;100488.83;1666777;86;21548;-64
2022/06/29 02:15:07;;;;;;;14.30;10.35;;;;;;;24.48;66.40;100483.80;1666769;86;21062;-65
2022/06/29 02:17:36;;;;;;;17.05;10.65;;;;;;;24.47;66.60;100491.93;1666827;85;21474;-64
2022/06/29 02:20:06;;;;;;;14.55;10.58;;;;;;;24.49;66.79;100499.48;1666964;86;21062;-65
2022/06/29 02:22:35;;;;;;;14.43;10.65;;;;;;;24.52;66.93;100505.91;1667016;86;21113;-64
2022/06/29 02:25:06;;;;;;;15.53;10.60;;;;;;;24.53;67.07;100508.99;1666856;86;21029;-64
2022/06/29 02:27:42;;;;;;;12.90;9.83;;;;;;;24.56;66.99;100499.45;1666868;86;21101;-64
2022/06/29 02:30:13;;;;;;;13.60;10.08;;;;;;;24.59;67.05;100500.83;1666952;86;21034;-64
2022/06/29 02:35:31;;;;;;;16.00;11.25;;;;;;;24.60;67.19;100512.31;1666793;86;21062;-64
2022/06/29 02:38:00;;;;;;;13.95;10.72;;;;;;;24.57;67.37;100510.92;1667096;86;21695;-64
2022/06/29 02:40:29;;;;;;;11.18;9.98;;;;;;;24.59;67.39;100510.64;1667041;85;21057;-63
2022/06/29 02:42:58;;;;;;;13.53;10.25;;;;;;;24.59;67.39;100504.47;1666865;86;21100;-67
2022/06/29 02:45:29;;;;;;;12.93;10.00;;;;;;;24.59;67.44;100496.06;1666778;85;21116;-63
2022/06/29 02:47:59;;;;;;;12.55;10.50;;;;;;;24.60;67.66;100503.91;1666795;85;21144;-65
2022/06/29 02:50:28;;;;;;;14.15;11.18;;;;;;;24.58;67.81;100508.97;1663102;84;21113;-64
2022/06/29 02:52:58;;;;;;;19.85;12.00;;;;;;;24.55;68.02;100505.34;1662458;86;21060;-64
2022/06/29 02:55:27;;;;;;;17.73;9.93;;;;;;;24.55;68.09;100512.34;1662203;86;21679;-65
2022/06/29 02:57:56;;;;;;;16.77;10.15;;;;;;;24.56;68.16;100509.81;1662299;86;21109;-65
2022/06/29 03:00:26;;;;;;;13.28;10.75;;;;;;;24.55;68.14;100500.58;1662397;85;21084;-65
2022/06/29 03:02:55;;;;;;;13.30;11.28;;;;;;;24.51;68.27;100506.48;1662561;86;21061;-65
2022/06/29 03:05:24;;;;;;;13.53;10.55;;;;;;;24.49;68.45;100514.33;1662337;85;21007;-65
2022/06/29 03:07:53;;;;;;;17.10;10.78;;;;;;;24.49;68.63;100512.93;1662345;85;21078;-65
2022/06/29 03:10:21;;;;;;;13.75;10.55;;;;;;;24.49;68.76;100510.69;1662430;86;21496;-65
2022/06/29 03:12:51;;;;;;;16.35;10.95;;;;;;;24.51;68.87;100508.44;1662358;86;21120;-65
2022/06/29 03:15:20;;;;;;;15.68;11.18;;;;;;;24.51;68.99;100512.08;1662395;86;21085;-64
2022/06/29 03:17:49;;;;;;;16.25;10.93;;;;;;;24.50;69.12;100516.57;1662242;86;21085;-64
2022/06/29 03:20:19;;;;;;;15.65;11.45;;;;;;;24.54;69.13;100512.06;1662322;86;21037;-65
2022/06/29 03:22:48;;;;;;;15.80;10.88;;;;;;;24.58;69.07;100508.97;1662193;85;21045;-65
2022/06/29 03:25:17;;;;;;;15.00;10.72;;;;;;;24.65;68.94;100513.69;1662464;86;21102;-65
2022/06/29 03:27:46;;;;;;;12.60;10.48;;;;;;;24.70;68.72;100509.45;1662266;85;21361;-65
2022/06/29 03:30:15;;;;;;;14.05;10.85;;;;;;;24.76;68.51;100509.73;1662403;86;21081;-65
2022/06/29 03:32:44;;;;;;;14.40;11.53;;;;;;;24.81;68.40;100500.45;1662388;86;21482;-64
2022/06/29 03:35:13;;;;;;;14.38;11.48;;;;;;;24.85;68.17;100502.39;1662637;86;21089;-64
2022/06/29 03:37:42;;;;;;;15.18;11.68;;;;;;;24.91;67.90;100499.83;1662508;85;21039;-65
2022/06/29 03:40:11;;;;;;;17.35;12.00;;;;;;;24.96;67.71;100503.16;1662295;86;21081;-66
2022/06/29 03:42:40;;;;;;;17.25;11.57;;;;;;;25.03;67.64;100502.30;1662320;85;21006;-65
2022/06/29 03:45:10;;;;;;;17.35;12.13;;;;;;;25.08;67.60;100500.02;1662491;86;21069;-65
2022/06/29 03:47:39;;;;;;;16.25;11.60;;;;;;;25.13;67.44;100504.19;1662286;85;21078;-64
2022/06/29 03:50:09;;;;;;;17.27;11.63;;;;;;;25.16;67.67;100507.81;1662258;84;21081;-63
2022/06/29 03:52:38;;;;;;;20.27;11.97;;;;;;;25.15;67.76;100505.58;1662493;86;21041;-64
2022/06/29 03:55:08;;;;;;;17.55;12.35;;;;;;;25.20;67.54;100510.30;1662379;86;21062;-65
2022/06/29 03:57:37;;;;;;;14.83;11.45;;;;;;;25.25;67.36;100510.27;1662304;86;21045;-64
2022/06/29 04:00:09;;;;;;;18.00;13.25;;;;;;;25.27;67.37;100502.39;1662495;86;21046;-65
2022/06/29 04:02:42;;;;;;;16.67;12.75;;;;;;;25.31;67.29;100501.24;1662293;86;21081;-66
2022/06/29 04:05:11;;;;;;;16.42;12.13;;;;;;;25.34;67.15;100497.29;1662258;86;21013;-65
2022/06/29 04:07:41;;;;;;;16.77;12.50;;;;;;;25.41;66.49;100491.37;1662295;86;21092;-66
2022/06/29 04:10:11;;;;;;;16.12;13.05;;;;;;;25.47;66.06;100484.02;1662263;86;21470;-65
2022/06/29 04:12:40;;;;;;;19.87;12.68;;;;;;;25.53;65.61;100487.05;1662311;86;21058;-66
2022/06/29 04:15:10;;;;;;;19.35;12.03;;;;;;;25.60;64.96;100475.47;1662269;86;21069;-64
2022/06/29 04:17:40;;;;;;;17.92;11.78;;;;;;;25.68;64.37;100476.27;1662245;86;21097;-65
2022/06/29 04:21:05;;;;;;;13.55;12.13;;;;;;;25.79;64.01;100482.05;1662235;86;21061;-65
2022/06/29 04:22:42;;;;;;;19.07;12.15;;;;;;;25.88;63.19;100476.61;1661772;86;21116;-65
2022/06/29 04:25:11;;;;;;;15.83;11.95;;;;;;;25.99;62.38;100472.55;1662259;86;21014;-66
2022/06/29 04:27:40;;;;;;;12.78;11.48;;;;;;;26.08;61.60;100479.78;1662381;86;21033;-65
2022/06/29 04:30:10;;;;;;;14.47;11.22;;;;;;;26.16;60.35;100486.98;1662311;85;21029;-65
2022/06/29 04:32:41;;;;;;;12.60;11.30;;;;;;;26.26;59.41;100484.62;1662250;85;21042;-64
2022/06/29 04:35:10;;;;;;;12.75;11.45;;;;;;;26.35;58.43;100479.20;1662300;86;21093;-65
2022/06/29 04:37:39;;;;;;;13.32;10.28;;;;;;;26.44;57.80;100481.61;1662522;86;21046;-66
2022/06/29 04:40:10;;;;;;;10.50;9.50;;;;;;;26.52;56.35;100478.96;1662359;85;21042;-66
2022/06/29 04:42:39;;;;;;;10.75;9.10;;;;;;;26.60;55.39;100476.61;1662724;85;21050;-65
2022/06/29 04:46:19;;;;;;;15.43;9.00;;;;;;;26.68;54.40;100479.61;1662287;86;21083;-66
2022/06/29 04:47:42;;;;;;;10.30;8.65;;;;;;;26.72;53.66;100479.27;1661985;86;21470;-65
2022/06/29 04:50:12;;;;;;;13.95;8.90;;;;;;;26.78;52.79;100479.46;1662221;85;21132;-66
2022/06/29 04:52:41;;;;;;;11.73;8.93;;;;;;;26.85;52.29;100484.14;1662107;86;21047;-65
2022/06/29 04:55:10;;;;;;;13.98;9.75;;;;;;;26.92;52.00;100477.30;1662183;85;21014;-64
2022/06/29 04:57:39;;;;;;;15.30;9.63;;;;;;;26.98;51.60;100476.11;1662382;85;21054;-67
2022/06/29 05:00:09;;;;;;;13.38;9.98;;;;;;;27.08;51.39;100473.97;1662314;86;21026;-66
2022/06/29 05:02:38;;;;;;;22.73;11.78;;;;;;;27.22;51.09;100482.46;1662362;86;21454;-67
2022/06/29 05:05:09;;;;;;;14.83;10.82;;;;;;;27.40;50.35;100474.58;1662681;86;21117;-66
2022/06/29 05:07:37;;;;;;;11.75;10.23;;;;;;;27.60;50.59;100478.17;1662364;86;21478;-65
2022/06/29 05:10:08;;;;;;;15.25;10.85;;;;;;;27.83;50.31;100472.98;1662163;86;21571;-66
2022/06/29 05:12:38;;;;;;;11.05;9.85;;;;;;;28.04;49.89;100481.89;1662477;86;21009;-67
2022/06/29 05:15:10;;;;;;;11.45;10.25;;;;;;;28.22;49.69;100476.73;1662409;86;21037;-67
2022/06/29 05:17:41;;;;;;;11.97;9.58;;;;;;;28.43;49.37;100479.98;1662325;86;21089;-64
2022/06/29 05:20:11;;;;;;;16.73;10.28;;;;;;;28.60;48.62;100475.09;1662638;86;21101;-66
2022/06/29 05:22:40;;;;;;;13.83;10.80;;;;;;;28.73;48.60;100477.92;1662282;86;21040;-65
2022/06/29 05:25:09;;;;;;;15.43;10.28;;;;;;;28.82;48.61;100481.39;1662323;85;21085;-66
2022/06/29 05:27:38;;;;;;;12.37;10.35;;;;;;;28.90;48.29;100482.08;1662262;86;21086;-66
2022/06/29 05:30:09;;;;;;;11.20;10.00;;;;;;;29.01;48.12;100479.27;1662487;85;21103;-66
2022/06/29 05:32:43;;;;;;;14.35;10.55;;;;;;;29.20;47.85;100482.75;1580791;91;21522;-66
2022/06/29 05:35:13;;;;;;;15.98;11.12;;;;;;;29.40;47.32;100477.20;1552039;92;21101;-66
2022/06/29 05:37:45;;;;;;;14.25;10.03;;;;;;;29.57;46.97;100480.73;1531068;94;21235;-66
2022/06/29 05:40:16;;;;;;;13.15;10.90;;;;;;;29.74;46.58;100480.84;1551894;92;21513;-66
2022/06/29 05:42:47;;;;;;;13.40;10.50;;;;;;;29.95;46.22;100486.79;1551900;91;21100;-65
2022/06/29 05:45:18;;;;;;;12.55;10.32;;;;;;;30.14;45.57;100485.16;1551729;92;21109;-67
2022/06/29 05:47:47;;;;;;;20.70;11.45;;;;;;;30.29;45.17;100492.61;1551799;92;21121;-66
2022/06/29 05:50:16;;;;;;;11.83;9.93;;;;;;;30.51;44.92;100480.94;1575281;87;21112;-67
2022/06/29 05:52:46;;;;;;;12.95;9.73;;;;;;;30.73;44.49;100492.19;1641522;86;21076;-65
2022/06/29 05:55:15;;;;;;;12.40;9.60;;;;;;;30.88;44.17;100497.95;1641764;87;21064;-66
2022/06/29 05:57:45;;;;;;;11.68;10.00;;;;;;;30.99;43.70;100497.87;1641610;87;21060;-67
2022/06/29 06:00:15;;;;;;;11.00;9.83;;;;;;;31.05;43.78;100490.05;1641610;87;21057;-66
2022/06/29 06:02:46;;;;;;;13.43;9.95;;;;;;;31.26;43.43;100493.11;1641546;87;21558;-66
2022/06/29 06:05:15;;;;;;;12.65;9.93;;;;;;;31.49;42.79;100503.08;1641571;87;21076;-68
2022/06/29 06:07:44;;;;;;;11.35;9.55;;;;;;;31.71;42.13;100504.31;1641592;87;21100;-67
2022/06/29 06:10:13;;;;;;;12.95;10.40;;;;;;;31.81;41.98;100500.28;1641737;87;21135;-67
2022/06/29 06:12:43;;;;;;;11.95;9.70;;;;;;;31.93;41.72;100510.36;1641961;87;21555;-65
2022/06/29 06:15:12;;;;;;;11.12;9.50;;;;;;;31.99;41.45;100501.92;1641564;86;21481;-66
2022/06/29 06:17:41;;;;;;;13.10;9.35;;;;;;;32.06;41.16;100504.23;1641612;86;21122;-68
2022/06/29 06:20:11;;;;;;;12.10;9.70;;;;;;;32.08;41.17;100499.88;1641742;86;21061;-67
2022/06/29 06:22:40;;;;;;;14.75;10.60;;;;;;;32.15;41.07;100497.94;1641741;87;21064;-67
2022/06/29 06:25:10;;;;;;;15.38;9.78;;;;;;;32.25;40.87;100496.75;1641743;87;21449;-66
2022/06/29 06:27:39;;;;;;;18.80;10.50;;;;;;;32.35;40.59;100491.53;1641730;86;21131;-66
2022/06/29 06:30:10;;;;;;;17.27;9.45;;;;;;;32.43;40.77;100482.73;1641620;86;21488;-67
2022/06/29 06:32:39;;;;;;;14.93;9.83;;;;;;;32.54;40.30;100487.45;1641766;87;21076;-66
2022/06/29 06:35:10;;;;;;;16.17;9.63;;;;;;;32.70;40.35;100471.48;1641766;87;21060;-66
2022/06/29 06:37:39;;;;;;;12.75;9.20;;;;;;;32.91;39.82;100468.10;1641857;87;21052;-67
2022/06/29 06:43:01;;;;;;;14.35;10.28;;;;;;;33.27;39.09;100458.13;1641928;87;21075;-67
2022/06/29 06:45:31;;;;;;;10.03;8.98;;;;;;;33.32;38.77;100460.78;1641810;86;21048;-67
2022/06/29 06:48:00;;;;;;;11.40;9.53;;;;;;;33.43;38.58;100461.17;1641819;87;21072;-67
2022/06/29 06:50:30;;;;;;;17.27;8.98;;;;;;;33.58;38.41;100461.93;1637924;86;21097;-66
2022/06/29 06:52:59;;;;;;;16.82;10.10;;;;;;;33.74;38.04;100461.49;1629518;88;21056;-66
2022/06/29 06:55:29;;;;;;;12.53;9.03;;;;;;;33.90;37.67;100456.02;1629590;87;21120;-68
2022/06/29 06:57:58;;;;;;;13.32;8.85;;;;;;;34.08;37.23;100450.34;1629659;87;21100;-68
2022/06/29 07:00:27;;;;;;;11.68;9.10;;;;;;;34.14;36.77;100448.92;1629865;88;21088;-67
2022/06/29 07:02:56;;;;;;;11.65;9.03;;;;;;;34.13;36.68;100454.97;1629527;87;21056;-67
2022/06/29 07:05:25;;;;;;;15.38;9.40;;;;;;;34.11;36.88;100450.23;1629598;88;21089;-66
2022/06/29 07:07:55;;;;;;;14.78;8.80;;;;;;;34.11;36.86;100445.37;1629512;87;21064;-66
2022/06/29 07:10:25;;;;;;;21.48;9.43;;;;;;;34.25;36.51;100450.11;1629707;87;21111;-67
2022/06/29 07:12:55;;;;;;;14.95;9.20;;;;;;;34.40;36.35;100443.48;1629531;88;21491;-67
2022/06/29 07:15:25;;;;;;;14.85;9.00;;;;;;;34.56;35.97;100450.97;1629598;88;21053;-66
2022/06/29 07:17:54;;;;;;;10.30;8.70;;;;;;;34.64;35.78;100440.05;1629857;87;21073;-68
2022/06/29 07:20:28;;;;;;;10.32;9.20;;;;;;;34.76;35.47;100437.77;1629541;87;21108;-66
2022/06/29 07:22:55;;;;;;;10.32;9.28;;;;;;;34.87;35.27;100432.42;1629672;88;21056;-67
2022/06/29 07:25:24;;;;;;;10.03;8.68;;;;;;;35.00;35.20;100437.48;1629551;88;21116;-67
2022/06/29 07:27:53;;;;;;;10.28;8.33;;;;;;;35.17;34.90;100440.05;1629723;87;21100;-68
2022/06/29 07:30:22;;;;;;;11.85;8.55;;;;;;;35.26;34.83;100437.88;1629431;87;21493;-67
2022/06/29 07:32:52;;;;;;;12.00;8.55;;;;;;;35.35;34.39;100434.30;1629505;88;21116;-67
2022/06/29 07:35:20;;;;;;;9.85;8.85;;;;;;;35.36;34.40;100431.69;1629659;87;21052;-66
2022/06/29 07:37:51;;;;;;;9.78;8.88;;;;;;;35.43;34.47;100437.58;1629684;88;21080;-68
2022/06/29 07:40:21;;;;;;;12.13;9.43;;;;;;;35.51;33.98;100433.73;1629732;88;21056;-66
2022/06/29 07:42:50;;;;;;;11.80;9.48;;;;;;;35.44;34.25;100432.70;1629684;87;21041;-67
2022/06/29 07:45:20;;;;;;;9.75;8.73;;;;;;;35.46;34.20;100435.42;1629679;88;21053;-67
2022/06/29 07:47:52;;;;;;;16.93;8.75;;;;;;;35.55;34.17;100430.98;1629663;88;21093;-68
2022/06/29 07:50:22;;;;;;;10.32;9.23;;;;;;;35.72;34.17;100432.06;1622902;86;21088;-68
2022/06/29 07:52:51;;;;;;;10.48;9.23;;;;;;;35.94;33.54;100430.66;1638051;87;21023;-67
2022/06/29 07:55:21;;;;;;;10.40;9.28;;;;;;;36.06;33.38;100424.02;1638336;86;21086;-67
2022/06/29 07:57:50;;;;;;;10.90;9.23;;;;;;;36.17;33.12;100425.95;1638179;86;21051;-67
2022/06/29 08:00:22;;;;;;;23.07;10.30;;;;;;;36.16;32.92;100425.72;1638060;86;21042;-64
2022/06/29 08:02:51;;;;;;;13.50;9.48;;;;;;;36.10;33.32;100427.20;1638072;87;21501;-65
2022/06/29 08:05:21;;;;;;;10.78;9.05;;;;;;;36.32;32.89;100424.30;1638096;86;21501;-65
2022/06/29 08:07:52;;;;;;;9.65;8.63;;;;;;;36.47;31.86;100422.63;1638410;86;21051;-65
2022/06/29 08:10:20;;;;;;;10.25;8.50;;;;;;;36.49;32.10;100418.81;1637967;86;22191;-67
2022/06/29 08:12:50;;;;;;;13.98;9.03;;;;;;;36.51;32.13;100411.53;1638019;86;21027;-68
2022/06/29 08:15:19;;;;;;;10.03;8.73;;;;;;;36.55;32.24;100420.77;1638042;87;21026;-68
2022/06/29 08:17:51;;;;;;;11.08;8.85;;;;;;;36.62;31.86;100418.91;1638090;87;21019;-68
2022/06/29 08:20:20;;;;;;;9.00;7.90;;;;;;;36.71;31.82;100410.13;1638056;86;21459;-69
2022/06/29 08:22:49;;;;;;;11.55;8.70;;;;;;;36.76;31.75;100409.27;1577484;90;21074;-69
2022/06/29 08:25:18;;;;;;;17.37;8.60;;;;;;;36.72;31.98;100415.46;1577671;91;21199;-69
2022/06/29 08:27:53;;;;;;;12.10;8.80;;;;;;;36.66;31.90;100414.10;1577601;91;21121;-68
2022/06/29 08:30:22;;;;;;;9.70;8.70;;;;;;;36.61;31.80;100414.40;1579212;89;21129;-70
2022/06/29 08:32:51;;;;;;;11.83;8.35;;;;;;;36.46;31.93;100422.41;1580782;90;21141;-68
2022/06/29 08:35:20;;;;;;;12.05;8.90;;;;;;;36.40;31.84;100416.73;1575266;91;21077;-68
2022/06/29 08:37:52;;;;;;;12.18;8.18;;;;;;;36.37;31.78;100425.44;1579553;90;21034;-68
2022/06/29 08:40:20;;;;;;;10.05;7.80;;;;;;;36.45;31.41;100421.58;1587092;88;22009;-69
2022/06/29 08:42:49;;;;;;;8.75;7.85;;;;;;;36.56;31.27;100421.00;1666752;86;21646;-69
2022/06/29 08:45:18;;;;;;;10.90;7.35;;;;;;;36.67;30.84;100425.75;1666588;86;21042;-69
2022/06/29 08:47:47;;;;;;;8.43;7.37;;;;;;;36.72;29.83;100425.46;1675054;85;21509;-70
2022/06/29 08:50:16;;;;;;;8.98;8.03;;;;;;;36.73;29.80;100425.69;1692267;84;21062;-68
2022/06/29 08:52:46;;;;;;;8.38;7.45;;;;;;;36.82;30.06;100421.22;1692146;84;21576;-69
2022/06/29 08:55:16;;;;;;;8.53;7.62;;;;;;;36.99;30.00;100417.09;1692411;85;21509;-70
2022/06/29 08:57:44;;;;;;;13.13;8.33;;;;;;;37.02;30.03;100424.30;1692384;85;21077;-70
2022/06/29 09:00:14;;;;;;;10.48;7.45;;;;;;;37.10;29.98;100421.85;1689798;84;21086;-70
2022/06/29 09:02:45;;;;;;;9.33;7.35;;;;;;;37.14;29.35;100423.35;1692585;84;21058;-68
2022/06/29 09:05:14;;;;;;;8.33;7.50;;;;;;;36.99;29.57;100421.38;1682220;85;21149;-68
2022/06/29 09:07:43;;;;;;;13.30;7.67;;;;;;;36.74;29.37;100414.48;1641590;86;21147;-67
2022/06/29 09:10:16;;;;;;;8.13;7.35;;;;;;;36.66;29.70;100413.28;1641673;87;21054;-69
2022/06/29 09:12:52;;;;;;;7.47;6.80;;;;;;;36.69;29.57;100409.67;1646489;86;21050;-70
2022/06/29 09:15:38;;;;;;;7.75;6.85;;;;;;;36.64;28.46;100419.96;1648637;86;21049;-69
2022/06/29 09:18:31;;;;;;;10.08;7.67;;;;;;;36.53;28.01;100417.46;1633740;86;21081;-69
2022/06/29 09:21:04;;;;;;;8.23;7.42;;;;;;;36.23;29.52;100404.26;1637590;86;21061;-70
2022/06/29 09:23:35;;;;;;;9.85;8.50;;;;;;;36.16;29.93;100410.02;1637584;86;22125;-70
2022/06/29 09:26:04;;;;;;;9.05;8.15;;;;;;;36.27;29.94;100405.17;1637439;87;21052;-70
2022/06/29 09:28:34;;;;;;;11.57;8.83;;;;;;;36.23;30.52;100407.11;1637571;86;21053;-68
2022/06/29 09:31:03;;;;;;;10.18;9.18;;;;;;;36.02;30.86;100398.86;1638377;86;21722;-68
2022/06/29 09:33:34;;;;;;;12.73;7.97;;;;;;;35.82;31.14;100397.95;1591247;87;21112;-67
2022/06/29 09:36:09;;;;;;;12.47;9.78;;;;;;;35.64;31.86;100393.15;1639016;87;21059;-66
2022/06/29 09:38:38;;;;;;;10.08;8.40;;;;;;;35.56;32.02;100398.44;1637988;87;21100;-66
2022/06/29 09:41:15;;;;;;;12.95;8.98;;;;;;;35.46;31.59;100397.55;1637431;87;21076;-66
2022/06/29 09:43:48;;;;;;;9.53;8.63;;;;;;;35.39;31.75;100396.76;1637750;87;21057;-64
2022/06/29 09:46:17;;;;;;;9.63;8.20;;;;;;;35.37;31.54;100384.89;1637575;87;21462;-66
2022/06/29 09:48:46;;;;;;;12.60;8.80;;;;;;;35.40;31.34;100386.19;1637541;87;21049;-70
2022/06/29 09:51:33;;;;;;;9.18;8.18;;;;;;;35.42;30.98;100378.92;1637487;87;21184;-68
2022/06/29 09:54:10;;;;;;;11.30;8.20;;;;;;;35.43;30.56;100377.73;1639816;87;21006;-69
2022/06/29 09:56:46;;;;;;;8.75;7.20;;;;;;;35.40;30.82;100377.04;1640209;87;21113;-68
2022/06/29 10:02:34;;;;;;;7.42;6.70;;;;;;;35.36;29.97;100376.11;1639958;87;21145;-67
2022/06/29 10:04:40;;;;;;;;;;;;;;;35.27;29.59;100371.16;1642439;87;21663;-69
2022/06/29 10:07:08;;;;;;;7.05;6.08;;;;;;;35.28;29.55;100367.11;1640204;87;20170;-69
2022/06/29 10:09:37;;;;;;;8.40;6.97;;;;;;;35.27;27.79;100364.03;1640275;87;21101;-68
2022/06/29 10:15:08;;;;;;;6.03;5.42;;;;;;;35.16;26.28;100365.75;1614360;89;21170;-68
2022/06/29 10:18:16;;;;;;;8.50;5.60;;;;;;;35.08;25.37;100362.44;1614238;88;21045;-67
2022/06/29 10:20:46;;;;;;;8.15;6.00;;;;;;;35.08;25.38;100362.44;1614050;89;21122;-69
2022/06/29 10:23:53;;;;;;;10.78;6.70;;;;;;;35.14;25.95;100366.72;1614080;88;21105;-68
2022/06/29 10:26:36;;;;;;;8.73;6.90;;;;;;;35.18;25.75;100360.52;1656393;86;21092;-68
2022/06/29 10:29:25;;;;;;;8.65;6.67;;;;;;;35.26;26.39;100358.09;1644531;86;21115;-66
2022/06/29 10:32:07;;;;;;;9.38;7.15;;;;;;;35.19;26.95;100345.08;1582478;89;21087;-71
2022/06/29 10:37:25;;;;;;;8.08;7.37;;;;;;;35.07;27.49;100337.41;1616020;87;21085;-69
2022/06/29 10:39:58;;;;;;;12.25;7.70;;;;;;;35.13;27.68;100326.60;1622104;87;21097;-67
2022/06/29 10:45:25;;;;;;;9.93;7.33;;;;;;;34.96;28.26;100310.05;1616602;87;21049;-67
2022/06/29 10:48:01;;;;;;;8.53;6.80;;;;;;;34.83;28.13;100298.49;1615689;89;21105;-70
2022/06/29 10:50:29;;;;;;;8.40;7.50;;;;;;;34.78;27.88;100295.88;1656327;86;21089;-70
2022/06/29 10:53:13;;;;;;;7.87;7.08;;;;;;;34.76;27.97;100301.11;1671536;84;21191;-71
2022/06/29 10:55:50;;;;;;;14.00;7.60;;;;;;;34.78;27.98;100299.32;1662157;85;21142;-70
2022/06/29 10:58:20;;;;;;;8.60;7.00;;;;;;;34.81;27.77;100298.00;1667835;86;21011;-69
2022/06/29 11:00:53;;;;;;;7.12;6.53;;;;;;;34.92;27.62;100302.00;1667798;85;21082;-69
2022/06/29 11:03:25;;;;;;;7.35;6.67;;;;;;;34.97;27.26;100302.34;1668017;85;21110;-69
2022/06/29 11:17:39;;;;;;;7.50;6.80;;;;;;;35.19;26.10;100288.94;1668202;86;21149;-70
2022/06/29 11:19:38;;;;;;;8.18;6.85;;;;;;;35.23;26.00;100285.58;1634354;87;21123;-69
2022/06/29 11:22:18;;;;;;;7.30;6.50;;;;;;;35.25;26.12;100277.49;1639896;87;21101;-69
2022/06/29 11:24:57;;;;;;;9.28;6.92;;;;;;;35.28;25.85;100268.22;1656287;86;21130;-70
2022/06/29 11:27:33;;;;;;;7.80;6.65;;;;;;;35.33;25.82;100257.17;1616022;88;21066;-70
2022/06/29 11:30:03;;;;;;;;;;;;;;;35.32;26.23;100253.23;1637986;87;21088;-71
2022/06/29 11:32:43;;;;;;;8.00;7.22;;;;;;;35.31;26.58;100262.38;1635741;88;20263;-69
2022/06/29 11:35:18;;;;;;;8.40;7.40;;;;;;;35.32;27.41;100264.63;1635579;88;21081;-67
2022/06/29 11:38:04;;;;;;;10.20;7.58;;;;;;;35.31;27.08;100258.10;1635675;88;21038;-70
2022/06/29 11:40:43;;;;;;;8.48;7.40;;;;;;;35.30;27.09;100258.47;1633465;87;21522;-69
2022/06/29 11:43:14;;;;;;;9.73;7.33;;;;;;;35.33;27.26;100236.40;1635720;88;21565;-68
2022/06/29 11:45:51;;;;;;;9.43;7.28;;;;;;;35.41;27.18;100230.50;1635634;87;21070;-68
2022/06/29 11:48:25;;;;;;;8.13;7.33;;;;;;;35.49;27.13;100228.66;1635486;87;21110;-71
2022/06/29 11:50:56;;;;;;;8.28;7.47;;;;;;;35.51;26.99;100235.64;1635450;88;21435;-69
2022/06/29 11:53:51;;;;;;;8.63;7.12;;;;;;;35.48;26.67;100224.16;1628410;87;21126;-67
2022/06/29 11:56:25;;;;;;;9.20;8.20;;;;;;;35.50;26.73;100222.59;1624551;88;21086;-68
2022/06/29 11:58:56;;;;;;;9.73;6.97;;;;;;;35.52;27.66;100230.17;1624772;88;21039;-69
2022/06/29 12:01:26;;;;;;;9.18;7.97;;;;;;;35.36;29.20;100223.66;1621849;88;21055;-69